Terminal Aerodrome Forecast
Issued by NWS Atlanta, GA

Home | Current Version | Previous Version | Text Only | Print | Product List | Glossary On
Versions: 1 2 3 4 5 6 7 8 9 10 11 12 13 14 15 16 17 18 19 20 21
886
FTUS42 KFFC 172320
TAFCSG
TAF
KCSG 172320Z 1800/1824 27008KT P6SM SCT045 SCT080
     FM180400 30005KT P6SM BKN040
     FM180600 35005KT P6SM SCT015 BKN030
     FM181400 05005KT P6SM BKN030
     FM181800 11005KT P6SM SCT025 BKN040=

USA.gov is the U.S. government's official web portal to all federal, state and local government web resources and services.